createdAt,value
2018-09-10T00:01:20.336Z,14.25
2018-09-10T00:03:47.802Z,15.28
2018-09-10T00:06:15.309Z,15.93
2018-09-10T00:08:45.144Z,14.53
2018-09-10T00:11:13.174Z,15.45
2018-09-10T00:13:44.660Z,15.20
2018-09-10T00:16:12.137Z,14.95
2018-09-10T00:18:39.456Z,14.55
2018-09-10T00:21:06.872Z,15.40
2018-09-10T00:23:34.367Z,15.60
2018-09-10T00:26:01.961Z,14.60
2018-09-10T00:28:30.031Z,14.98
2018-09-10T00:30:57.559Z,15.68
2018-09-10T00:33:24.966Z,15.15
2018-09-10T00:35:52.335Z,14.75
2018-09-10T00:38:19.727Z,15.78
2018-09-10T00:40:47.064Z,15.40
2018-09-10T00:43:14.528Z,15.00
2018-09-10T00:45:41.943Z,15.25
2018-09-10T00:48:09.605Z,15.85
2018-09-10T00:50:37.123Z,14.87
2018-09-10T00:53:04.461Z,15.40
2018-09-10T00:55:31.902Z,15.70
2018-09-10T00:57:59.276Z,15.30
2018-09-10T01:00:26.643Z,15.15
2018-09-10T01:02:58.257Z,14.95
2018-09-10T01:05:25.663Z,15.72
2018-09-10T01:10:21.081Z,14.68
2018-09-10T01:12:48.788Z,15.20
2018-09-10T01:15:16.518Z,15.75
2018-09-10T01:17:44.756Z,14.75
2018-09-10T01:20:12.510Z,16.67
2018-09-10T01:22:39.896Z,16.02
2018-09-10T01:25:08.203Z,14.87
2018-09-10T01:27:35.728Z,16.85
2018-09-10T01:30:03.161Z,14.50
2018-09-10T01:32:30.553Z,15.65
2018-09-10T01:35:02.394Z,14.50
2018-09-10T01:37:29.881Z,14.78
2018-09-10T01:39:57.734Z,15.13
2018-09-10T01:42:25.284Z,14.55
2018-09-10T01:44:53.779Z,14.05
2018-09-10T01:47:21.397Z,14.35
2018-09-10T01:49:48.940Z,14.25
2018-09-10T01:52:16.724Z,16.02
2018-09-10T01:54:48.622Z,15.28
2018-09-10T01:57:16.838Z,16.48
2018-09-10T01:59:44.232Z,14.70
2018-09-10T02:02:11.798Z,15.30
2018-09-10T02:07:13.493Z,15.18
2018-09-10T02:09:41.745Z,14.50
2018-09-10T02:12:13.405Z,15.50
2018-09-10T02:14:41.397Z,14.80
2018-09-10T02:17:08.912Z,16.65
2018-09-10T02:19:36.744Z,16.17
2018-09-10T02:22:04.191Z,15.08
2018-09-10T02:24:31.842Z,15.40
2018-09-10T02:26:59.174Z,14.65
2018-09-10T02:29:26.672Z,14.93
2018-09-10T02:31:54.136Z,15.00
2018-09-10T02:34:25.682Z,14.95
2018-09-10T02:36:53.051Z,14.43
2018-09-10T02:39:21.925Z,14.85
2018-09-10T02:44:16.840Z,14.65
2018-09-10T02:46:44.919Z,14.50
2018-09-10T02:49:12.465Z,15.15
2018-09-10T02:51:39.829Z,14.45
2018-09-10T02:54:07.263Z,14.73
2018-09-10T02:56:38.659Z,14.85
2018-09-10T02:59:06.070Z,15.20
2018-09-10T03:01:33.566Z,14.65
2018-09-10T03:04:00.991Z,15.58
2018-09-10T03:06:28.328Z,14.43
2018-09-10T03:08:55.717Z,15.03
2018-09-10T03:11:23.040Z,14.85
2018-09-10T03:13:50.413Z,14.68
2018-09-10T03:16:18.822Z,14.50
2018-09-10T03:18:46.853Z,15.60
2018-09-10T03:21:15.090Z,14.70
2018-09-10T03:23:42.551Z,15.85
2018-09-10T03:26:09.915Z,14.90
2018-09-10T03:28:41.207Z,15.58
2018-09-10T03:31:08.682Z,14.05
2018-09-10T03:33:36.165Z,14.87
2018-09-10T03:36:08.375Z,15.00
2018-09-10T03:38:35.766Z,16.62
2018-09-10T03:41:03.201Z,14.45
2018-09-10T03:43:30.518Z,16.42
2018-09-10T03:45:57.934Z,15.58
2018-09-10T03:48:25.265Z,14.50
2018-09-10T03:50:52.647Z,15.80
2018-09-10T03:53:20.161Z,14.47
2018-09-10T03:55:47.621Z,15.05
2018-09-10T03:58:14.992Z,15.50
2018-09-10T04:00:42.395Z,14.55
2018-09-10T04:03:09.725Z,16.17
2018-09-10T04:05:37.188Z,17.77
2018-09-10T04:08:04.566Z,16.10
2018-09-10T04:10:31.948Z,14.85
2018-09-10T04:12:59.385Z,15.32
2018-09-10T04:15:27.686Z,17.95
2018-09-10T04:17:55.030Z,15.38
2018-09-10T04:20:22.442Z,14.20
2018-09-10T04:22:49.792Z,17.50
2018-09-10T04:25:21.130Z,15.00
2018-09-10T04:27:48.558Z,15.00
2018-09-10T04:32:43.271Z,14.60
2018-09-10T04:35:11.319Z,14.45
2018-09-10T04:37:39.130Z,15.98
2018-09-10T04:40:06.928Z,16.85
2018-09-10T04:42:34.582Z,16.45
2018-09-10T04:45:02.379Z,15.70
2018-09-10T04:47:29.805Z,15.30
2018-09-10T04:49:57.337Z,15.58
2018-09-10T04:52:24.732Z,16.52
2018-09-10T04:54:52.080Z,19.82
2018-09-10T04:57:19.491Z,14.90
2018-09-10T04:59:46.974Z,15.20
2018-09-10T05:02:14.438Z,15.40
2018-09-10T05:04:41.884Z,15.40
2018-09-10T05:07:09.371Z,15.70
2018-09-10T05:09:37.413Z,16.95
2018-09-10T05:12:04.745Z,17.10
2018-09-10T05:14:32.141Z,16.45
2018-09-10T05:17:01.579Z,21.23
2018-09-10T05:19:28.926Z,17.50
2018-09-10T05:21:56.239Z,18.40
2018-09-10T05:24:23.511Z,16.05
2018-09-10T05:26:50.820Z,16.62
2018-09-10T05:29:18.106Z,16.25
2018-09-10T05:31:45.434Z,15.53
2018-09-10T05:34:12.793Z,16.75
2018-09-10T05:36:40.088Z,15.30
2018-09-10T05:39:08.056Z,16.95
2018-09-10T05:41:35.427Z,15.58
2018-09-10T05:44:02.791Z,16.73
2018-09-10T05:46:30.675Z,16.55
2018-09-10T05:48:57.956Z,16.20
2018-09-10T05:51:25.404Z,15.55
2018-09-10T05:53:52.713Z,15.23
2018-09-10T05:56:20.023Z,15.72
2018-09-10T05:58:47.311Z,15.30
2018-09-10T06:01:14.699Z,15.38
2018-09-10T06:03:42.007Z,15.80
2018-09-10T06:06:09.347Z,15.32
2018-09-10T06:08:36.752Z,17.50
2018-09-10T06:11:04.041Z,16.25
2018-09-10T06:13:31.395Z,17.23
2018-09-10T06:15:58.756Z,17.35
2018-09-10T06:18:26.094Z,17.73
2018-09-10T06:20:53.443Z,16.75
2018-09-10T06:23:20.796Z,17.17
2018-09-10T06:25:48.352Z,16.40
2018-09-10T06:28:15.704Z,16.10
2018-09-10T06:30:42.999Z,16.07
2018-09-10T06:33:10.397Z,19.55
2018-09-10T06:35:37.699Z,19.67
2018-09-10T06:38:05.193Z,17.90
2018-09-10T06:40:32.498Z,17.50
2018-09-10T06:42:59.826Z,18.32
2018-09-10T06:45:27.199Z,20.77
2018-09-10T06:47:54.713Z,19.52
2018-09-10T06:50:21.945Z,21.45
2018-09-10T06:52:49.276Z,19.23
2018-09-10T06:55:16.679Z,18.50
2018-09-10T06:57:44.011Z,19.07
2018-09-10T07:00:11.427Z,19.30
2018-09-10T07:02:38.800Z,17.57
2018-09-10T07:05:06.178Z,18.70
2018-09-10T07:07:33.502Z,21.97
2018-09-10T07:10:00.829Z,18.62
2018-09-10T07:12:28.154Z,21.55
2018-09-10T07:14:55.420Z,18.92
2018-09-10T07:17:22.718Z,22.20
2018-09-10T07:19:50.045Z,21.07
2018-09-10T07:22:17.404Z,21.85
2018-09-10T07:24:44.805Z,22.90
2018-09-10T07:27:12.096Z,19.90
2018-09-10T07:29:39.396Z,21.60
2018-09-10T07:32:06.750Z,20.27
2018-09-10T07:34:34.045Z,23.73
2018-09-10T07:37:01.424Z,22.77
2018-09-10T07:39:28.793Z,21.50
2018-09-10T07:41:56.109Z,19.93
2018-09-10T07:44:23.532Z,21.60
2018-09-10T07:46:50.939Z,19.43
2018-09-10T07:49:19.056Z,20.33
2018-09-10T07:51:46.408Z,21.37
2018-09-10T07:54:13.707Z,21.00
2018-09-10T07:56:41.117Z,19.87
2018-09-10T07:59:08.416Z,23.87
2018-09-10T08:01:35.761Z,22.83
2018-09-10T08:04:03.106Z,24.67
2018-09-10T08:06:30.906Z,19.60
2018-09-10T08:08:58.246Z,24.03
2018-09-10T08:11:25.610Z,21.80
2018-09-10T08:13:52.914Z,23.27
2018-09-10T08:16:20.254Z,25.20
2018-09-10T08:18:47.536Z,24.67
2018-09-10T08:21:14.863Z,23.70
2018-09-10T08:23:42.218Z,23.63
2018-09-10T08:26:09.566Z,21.53
2018-09-10T08:28:36.901Z,24.27
2018-09-10T08:31:04.213Z,21.43
2018-09-10T08:33:31.636Z,20.70
2018-09-10T08:35:59.018Z,27.83
2018-09-10T08:38:26.984Z,23.50
2018-09-10T08:40:54.426Z,24.20
2018-09-10T08:43:21.856Z,24.00
2018-09-10T08:45:49.230Z,25.53
2018-09-10T08:48:16.691Z,23.20
2018-09-10T08:50:44.630Z,21.20
2018-09-10T08:53:12.141Z,24.20
2018-09-10T08:55:39.808Z,24.67
2018-09-10T08:58:06.962Z,22.70
2018-09-10T09:00:34.818Z,21.20
2018-09-10T09:03:02.885Z,22.03
2018-09-10T09:05:30.308Z,22.23
2018-09-10T09:07:57.782Z,22.20
2018-09-10T09:10:25.058Z,21.20
2018-09-10T09:12:52.369Z,21.67
2018-09-10T09:15:19.656Z,24.10
2018-09-10T09:17:46.954Z,24.43
2018-09-10T09:20:14.267Z,22.33
2018-09-10T09:22:41.733Z,23.57
2018-09-10T09:25:09.054Z,22.97
2018-09-10T09:27:36.353Z,23.13
2018-09-10T09:30:03.745Z,21.70
2018-09-10T09:32:31.045Z,23.23
2018-09-10T09:34:59.120Z,21.03
2018-09-10T09:37:31.793Z,22.77
2018-09-10T09:40:04.427Z,21.97
2018-09-10T09:42:37.023Z,20.57
2018-09-10T09:45:09.736Z,19.60
2018-09-10T09:47:37.090Z,19.73
2018-09-10T09:50:04.437Z,21.20
2018-09-10T09:52:32.006Z,21.73
2018-09-10T09:54:59.811Z,18.40
2018-09-10T09:57:27.148Z,21.27
2018-09-10T09:59:54.468Z,20.90
2018-09-10T10:02:25.290Z,20.47
2018-09-10T10:04:52.577Z,22.13
2018-09-10T10:07:19.872Z,23.23
2018-09-10T10:09:47.277Z,22.67
2018-09-10T10:12:14.688Z,20.23
2018-09-10T10:14:41.965Z,20.70
2018-09-10T10:17:09.298Z,23.27
2018-09-10T10:19:36.640Z,21.20
2018-09-10T10:22:04.185Z,21.10
2018-09-10T10:24:31.573Z,23.33
2018-09-10T10:26:58.878Z,19.30
2018-09-10T10:29:26.682Z,19.73
2018-09-10T10:31:54.691Z,24.53
2018-09-10T10:34:22.091Z,23.83
2018-09-10T10:36:49.388Z,18.60
2018-09-10T10:39:16.773Z,23.63
2018-09-10T10:41:44.016Z,21.57
2018-09-10T10:44:11.390Z,19.97
2018-09-10T10:46:38.684Z,22.03
2018-09-10T10:49:06.052Z,22.23
2018-09-10T10:51:33.321Z,20.50
2018-09-10T10:54:00.672Z,22.07
2018-09-10T10:56:28.089Z,20.87
2018-09-10T10:58:55.423Z,20.00
2018-09-10T11:01:22.794Z,20.10
2018-09-10T11:03:50.090Z,21.70
2018-09-10T11:06:17.388Z,17.93
2018-09-10T11:08:44.692Z,19.70
2018-09-10T11:11:11.993Z,18.63
2018-09-10T11:13:39.291Z,21.90
2018-09-10T11:16:06.580Z,20.37
2018-09-10T11:18:33.906Z,20.40
2018-09-10T11:21:01.200Z,18.43
2018-09-10T11:23:28.493Z,20.20
2018-09-10T11:25:55.776Z,19.60
2018-09-10T11:28:23.081Z,20.33
2018-09-10T11:30:50.387Z,18.50
2018-09-10T11:33:17.679Z,18.90
2018-09-10T11:35:45.003Z,20.70
2018-09-10T11:38:12.323Z,20.57
2018-09-10T11:40:39.672Z,16.80
2018-09-10T11:43:06.989Z,17.30
2018-09-10T11:45:34.835Z,19.23
2018-09-10T11:48:02.186Z,20.73
2018-09-10T11:50:29.478Z,20.43
2018-09-10T11:52:56.821Z,18.27
2018-09-10T11:55:24.129Z,18.57
2018-09-10T11:57:51.408Z,21.33
2018-09-10T12:00:18.781Z,19.50
2018-09-10T12:02:46.081Z,19.43
2018-09-10T12:05:13.454Z,16.27
2018-09-10T12:07:40.787Z,17.60
2018-09-10T12:10:08.072Z,17.20
2018-09-10T12:12:35.401Z,18.60
2018-09-10T12:15:02.774Z,17.27
2018-09-10T12:17:30.066Z,18.10
2018-09-10T12:19:57.424Z,18.93
2018-09-10T12:22:24.693Z,16.90
2018-09-10T12:24:51.996Z,26.37
2018-09-10T12:27:19.292Z,19.53
2018-09-10T12:29:46.574Z,16.40
2018-09-10T12:32:13.941Z,17.33
2018-09-10T12:34:41.166Z,17.57
2018-09-10T12:37:08.465Z,17.70
2018-09-10T12:39:35.789Z,17.13
2018-09-10T12:42:03.094Z,15.83
2018-09-10T12:44:30.398Z,17.93
2018-09-10T12:46:57.662Z,17.40
2018-09-10T12:49:25.104Z,16.20
2018-09-10T12:51:52.459Z,15.73
2018-09-10T12:54:19.760Z,18.43
2018-09-10T12:56:47.067Z,15.30
2018-09-10T12:59:14.363Z,16.40
2018-09-10T13:01:41.660Z,15.33
2018-09-10T13:04:08.995Z,17.27
2018-09-10T13:06:36.254Z,17.93
2018-09-10T13:09:04.859Z,19.93
2018-09-10T13:11:32.181Z,16.57
2018-09-10T13:13:59.487Z,17.00
2018-09-10T13:16:26.780Z,16.63
2018-09-10T13:18:54.164Z,16.00
2018-09-10T13:21:21.454Z,16.63
2018-09-10T13:23:48.773Z,17.20
2018-09-10T13:26:16.069Z,17.10
2018-09-10T13:28:43.363Z,16.63
2018-09-10T13:31:10.689Z,15.53
2018-09-10T13:33:37.963Z,16.60
2018-09-10T13:36:05.267Z,16.47
2018-09-10T13:38:32.586Z,18.20
2018-09-10T13:40:59.914Z,18.50
2018-09-10T13:43:27.194Z,16.50
2018-09-10T13:45:54.538Z,17.80
2018-09-10T13:48:21.872Z,15.93
2018-09-10T13:50:49.800Z,17.37
2018-09-10T13:53:17.115Z,17.03
2018-09-10T13:55:44.388Z,16.53
2018-09-10T13:58:11.673Z,17.23
2018-09-10T14:00:38.976Z,18.50
2018-09-10T14:03:06.637Z,17.47
2018-09-10T14:05:33.972Z,17.57
2018-09-10T14:08:01.283Z,16.07
2018-09-10T14:10:29.717Z,16.17
2018-09-10T14:12:57.050Z,16.27
2018-09-10T14:15:24.373Z,15.77
2018-09-10T14:17:51.695Z,17.30
2018-09-10T14:20:19.144Z,17.10
2018-09-10T14:22:46.453Z,18.50
2018-09-10T14:25:13.787Z,18.07
2018-09-10T14:27:41.090Z,16.00
2018-09-10T14:30:08.600Z,15.37
2018-09-10T14:32:35.887Z,15.57
2018-09-10T14:35:03.203Z,19.40
2018-09-10T14:37:30.860Z,15.73
2018-09-10T14:39:58.128Z,19.60
2018-09-10T14:42:25.495Z,19.33
2018-09-10T14:44:52.790Z,19.50
2018-09-10T14:47:20.095Z,16.63
2018-09-10T14:49:47.397Z,16.30
2018-09-10T14:52:14.700Z,18.67
2018-09-10T14:54:42.021Z,18.90
2018-09-10T14:57:09.308Z,16.63
2018-09-10T14:59:36.608Z,17.73
2018-09-10T15:02:03.913Z,18.87
2018-09-10T15:04:31.303Z,18.20
2018-09-10T15:06:58.645Z,16.70
2018-09-10T15:09:25.921Z,17.67
2018-09-10T15:11:53.223Z,17.10
2018-09-10T15:14:20.549Z,19.03
2018-09-10T15:16:47.811Z,18.23
2018-09-10T15:19:15.202Z,19.13
2018-09-10T15:21:42.507Z,17.07
2018-09-10T15:24:09.808Z,18.87
2018-09-10T15:26:37.099Z,18.13
2018-09-10T15:29:04.493Z,17.27
2018-09-10T15:31:31.819Z,18.57
2018-09-10T15:33:59.106Z,18.27
2018-09-10T15:36:26.603Z,16.40
2018-09-10T15:38:53.931Z,17.50
2018-09-10T15:41:21.247Z,20.03
2018-09-10T15:43:48.599Z,21.87
2018-09-10T15:46:15.989Z,19.03
2018-09-10T15:48:43.334Z,18.23
2018-09-10T15:51:10.690Z,17.27
2018-09-10T15:53:38.014Z,17.60
2018-09-10T15:56:05.378Z,18.50
2018-09-10T15:58:32.753Z,18.10
2018-09-10T16:01:00.210Z,38.07
2018-09-10T16:03:27.504Z,17.87
2018-09-10T16:05:54.903Z,17.40
2018-09-10T16:08:22.519Z,18.33
2018-09-10T16:10:50.363Z,17.40
2018-09-10T16:13:17.647Z,18.50
2018-09-10T16:15:45.014Z,17.03
2018-09-10T16:18:12.306Z,17.37
2018-09-10T16:20:39.632Z,17.23
2018-09-10T16:23:06.907Z,19.30
2018-09-10T16:25:34.233Z,18.23
2018-09-10T16:28:01.555Z,17.33
2018-09-10T16:30:28.911Z,17.33
2018-09-10T16:32:56.208Z,16.70
2018-09-10T16:35:23.588Z,17.57
2018-09-10T16:37:50.911Z,18.20
2018-09-10T16:40:18.225Z,19.97
2018-09-10T16:42:45.612Z,17.37
2018-09-10T16:45:12.869Z,17.70
2018-09-10T16:47:40.312Z,19.20
2018-09-10T16:50:07.669Z,19.00
2018-09-10T16:52:35.139Z,17.60
2018-09-10T16:55:02.678Z,17.97
2018-09-10T16:57:29.920Z,17.20
2018-09-10T16:59:57.214Z,18.00
2018-09-10T17:02:24.519Z,20.03
2018-09-10T17:04:51.832Z,18.10
2018-09-10T17:07:19.258Z,17.83
2018-09-10T17:09:46.800Z,17.07
2018-09-10T17:12:14.377Z,22.03
2018-09-10T17:14:41.929Z,17.70
2018-09-10T17:17:09.725Z,19.90
2018-09-10T17:19:37.130Z,17.20
2018-09-10T17:22:04.703Z,19.53
2018-09-10T17:24:32.437Z,18.60
2018-09-10T17:27:00.773Z,20.73
2018-09-10T17:29:28.252Z,16.33
2018-09-10T17:31:55.625Z,17.40
2018-09-10T17:34:23.059Z,17.57
2018-09-10T17:36:50.562Z,20.00
2018-09-10T17:39:17.997Z,17.30
2018-09-10T17:41:45.607Z,21.30
2018-09-10T17:44:13.050Z,18.17
2018-09-10T17:46:40.630Z,19.43
2018-09-10T17:49:07.978Z,17.13
2018-09-10T17:51:35.458Z,18.33
2018-09-10T17:54:03.601Z,19.77
2018-09-10T17:56:31.684Z,17.20
2018-09-10T17:59:00.336Z,18.40
2018-09-10T18:01:28.794Z,18.13
2018-09-10T18:03:56.177Z,17.37
2018-09-10T18:06:23.534Z,16.60
2018-09-10T18:08:51.035Z,17.50
2018-09-10T18:11:22.907Z,18.53
2018-09-10T18:13:50.306Z,18.23
2018-09-10T18:16:17.700Z,18.13
2018-09-10T18:18:45.606Z,17.53
2018-09-10T18:21:12.970Z,17.40
2018-09-10T18:23:40.425Z,19.17
2018-09-10T18:26:08.355Z,18.87
2018-09-10T18:28:37.594Z,18.27
2018-09-10T18:31:05.734Z,18.47
2018-09-10T18:33:33.171Z,19.70
2018-09-10T18:36:00.578Z,18.37
2018-09-10T18:38:27.976Z,17.60
2018-09-10T18:40:56.814Z,17.20
2018-09-10T18:43:24.333Z,21.73
2018-09-10T18:45:52.491Z,16.90
2018-09-10T18:48:21.113Z,17.10
2018-09-10T18:50:48.933Z,15.90
2018-09-10T18:53:17.230Z,19.17
2018-09-10T18:55:44.657Z,22.17
2018-09-10T18:58:12.113Z,16.37
2018-09-10T19:00:40.779Z,18.40
2018-09-10T19:03:08.341Z,22.00
2018-09-10T19:05:35.833Z,19.50
2018-09-10T19:08:03.718Z,22.57
2018-09-10T19:10:31.296Z,17.70
2018-09-10T19:12:59.205Z,18.17
2018-09-10T19:15:27.499Z,18.50
2018-09-10T19:17:56.477Z,16.97
2018-09-10T19:20:23.935Z,17.23
2018-09-10T19:22:51.366Z,17.30
2018-09-10T19:25:19.020Z,20.17
2018-09-10T19:27:46.625Z,17.47
2018-09-10T19:30:14.220Z,18.10
2018-09-10T19:32:41.569Z,17.83
2018-09-10T19:35:09.010Z,16.27
2018-09-10T19:37:36.478Z,19.65
2018-09-10T19:40:05.116Z,18.48
2018-09-10T19:42:32.538Z,18.40
2018-09-10T19:45:00.362Z,18.50
2018-09-10T19:47:27.742Z,18.67
2018-09-10T19:49:59.398Z,18.03
2018-09-10T19:52:29.920Z,18.77
2018-09-10T19:54:57.372Z,17.05
2018-09-10T19:57:25.128Z,17.30
2018-09-10T19:59:53.083Z,17.00
2018-09-10T20:02:20.546Z,20.85
2018-09-10T20:04:47.902Z,18.75
2018-09-10T20:07:15.921Z,18.62
2018-09-10T20:09:43.351Z,18.30
2018-09-10T20:12:10.727Z,18.92
2018-09-10T20:14:38.121Z,17.00
2018-09-10T20:17:06.179Z,20.07
2018-09-10T20:19:34.114Z,19.40
2018-09-10T20:22:06.532Z,17.02
2018-09-10T20:24:33.999Z,20.30
2018-09-10T20:27:02.768Z,16.10
2018-09-10T20:29:30.194Z,18.85
2018-09-10T20:31:57.612Z,20.10
2018-09-10T20:36:52.235Z,18.40
2018-09-10T20:39:19.950Z,18.50
2018-09-10T20:41:47.455Z,15.80
2018-09-10T20:44:15.523Z,18.62
2018-09-10T20:46:43.443Z,18.30
2018-09-10T20:49:15.392Z,18.20
2018-09-10T20:51:43.609Z,17.95
2018-09-10T20:54:11.699Z,18.48
2018-09-10T20:56:39.616Z,21.62
2018-09-10T20:59:11.130Z,19.82
2018-09-10T21:01:38.460Z,19.67
2018-09-10T21:04:05.931Z,19.20
2018-09-10T21:06:34.291Z,18.40
2018-09-10T21:09:02.371Z,18.75
2018-09-10T21:11:29.803Z,19.25
2018-09-10T21:13:57.938Z,20.37
2018-09-10T21:16:25.558Z,19.32
2018-09-10T21:18:53.588Z,25.08
2018-09-10T21:21:20.968Z,21.17
2018-09-10T21:23:48.363Z,19.55
2018-09-10T21:26:15.678Z,20.05
2018-09-10T21:28:43.446Z,19.67
2018-09-10T21:31:10.734Z,20.55
2018-09-10T21:33:38.235Z,18.50
2018-09-10T21:36:05.646Z,20.15
2018-09-10T21:38:33.032Z,20.85
2018-09-10T21:41:00.463Z,19.35
2018-09-10T21:43:27.822Z,21.73
2018-09-10T21:45:55.214Z,20.02
2018-09-10T21:48:23.180Z,20.55
2018-09-10T21:50:50.693Z,20.30
2018-09-10T21:53:18.039Z,20.65
2018-09-10T21:55:46.193Z,19.32
2018-09-10T21:58:13.584Z,23.12
2018-09-10T22:00:45.538Z,18.85
2018-09-10T22:03:13.538Z,19.57
2018-09-10T22:05:40.926Z,19.30
2018-09-10T22:08:12.692Z,20.45
2018-09-10T22:10:40.102Z,19.92
2018-09-10T22:13:08.071Z,19.07
2018-09-10T22:15:35.459Z,18.55
2018-09-10T22:18:10.628Z,21.85
2018-09-10T22:20:38.002Z,19.80
2018-09-10T22:23:05.427Z,21.15
2018-09-10T22:25:32.774Z,18.50
2018-09-10T22:28:01.370Z,17.02
2018-09-10T22:30:29.471Z,19.25
2018-09-10T22:32:56.922Z,20.20
2018-09-10T22:35:24.366Z,18.45
2018-09-10T22:37:52.547Z,18.73
2018-09-10T22:40:20.233Z,17.75
2018-09-10T22:42:47.586Z,17.57
2018-09-10T22:45:15.467Z,19.00
2018-09-10T22:47:42.812Z,21.27
2018-09-10T22:50:10.187Z,18.85
2018-09-10T22:52:37.615Z,21.42
2018-09-10T22:55:05.034Z,19.02
2018-09-10T22:57:33.160Z,17.35
2018-09-10T23:00:00.526Z,20.90
2018-09-10T23:02:27.943Z,19.77
2018-09-10T23:04:55.310Z,18.05
2018-09-10T23:07:27.946Z,17.73
2018-09-10T23:09:55.563Z,22.95
2018-09-10T23:12:27.824Z,18.00
2018-09-10T23:14:55.378Z,18.57
2018-09-10T23:17:26.785Z,19.67
2018-09-10T23:19:54.507Z,18.02
2018-09-10T23:22:22.261Z,20.97
2018-09-10T23:24:49.720Z,19.55
2018-09-10T23:27:17.073Z,18.73
2018-09-10T23:29:45.020Z,18.87
2018-09-10T23:32:12.410Z,19.32
2018-09-10T23:34:39.875Z,20.90
2018-09-10T23:37:07.758Z,19.07
2018-09-10T23:39:39.793Z,18.42
2018-09-10T23:42:07.632Z,21.15
2018-09-10T23:44:34.986Z,22.35
2018-09-10T23:47:02.681Z,28.73
2018-09-10T23:49:34.703Z,21.02
2018-09-10T23:52:02.063Z,21.77
2018-09-10T23:54:30.429Z,20.77
2018-09-10T23:56:58.895Z,20.57
2018-09-10T23:59:30.575Z,22.27
